sensor_id;sensor_type;location;lat;lon;timestamp;temperature;humidity
1578;DHT22;57623;53.608;10.004;2023-03-20T00:01:59;9.70;99.90
1578;DHT22;57623;53.608;10.004;2023-03-20T00:04:28;9.70;99.90
1578;DHT22;57623;53.608;10.004;2023-03-20T00:06:56;9.70;99.90
1578;DHT22;57623;53.608;10.004;2023-03-20T00:09:24;9.70;99.90
1578;DHT22;57623;53.608;10.004;2023-03-20T00:11:53;9.70;99.90
1578;DHT22;57623;53.608;10.004;2023-03-20T00:14:23;9.70;99.90
1578;DHT22;57623;53.608;10.004;2023-03-20T00:16:52;9.70;99.90
1578;DHT22;57623;53.608;10.004;2023-03-20T00:19:22;9.70;99.90
1578;DHT22;57623;53.608;10.004;2023-03-20T00:21:53;9.70;99.90
1578;DHT22;57623;53.608;10.004;2023-03-20T00:24:22;9.70;99.90
1578;DHT22;57623;53.608;10.004;2023-03-20T00:26:51;9.70;99.90
1578;DHT22;57623;53.608;10.004;2023-03-20T00:29:22;9.70;99.90
1578;DHT22;57623;53.608;10.004;2023-03-20T00:31:50;9.70;99.90
1578;DHT22;57623;53.608;10.004;2023-03-20T00:34:21;9.70;99.90
1578;DHT22;57623;53.608;10.004;2023-03-20T00:36:49;9.70;99.90
1578;DHT22;57623;53.608;10.004;2023-03-20T00:39:19;9.70;99.90
1578;DHT22;57623;53.608;10.004;2023-03-20T00:41:49;9.70;99.90
1578;DHT22;57623;53.608;10.004;2023-03-20T00:44:21;9.80;99.90
1578;DHT22;57623;53.608;10.004;2023-03-20T00:46:51;9.70;99.90
1578;DHT22;57623;53.608;10.004;2023-03-20T00:49:22;9.70;99.90
1578;DHT22;57623;53.608;10.004;2023-03-20T00:51:51;9.70;99.90
1578;DHT22;57623;53.608;10.004;2023-03-20T00:54:20;9.80;99.90
1578;DHT22;57623;53.608;10.004;2023-03-20T00:56:53;9.80;99.90
1578;DHT22;57623;53.608;10.004;2023-03-20T00:59:24;9.70;99.90
1578;DHT22;57623;53.608;10.004;2023-03-20T01:01:53;9.70;99.90
1578;DHT22;57623;53.608;10.004;2023-03-20T01:04:22;9.70;99.90
1578;DHT22;57623;53.608;10.004;2023-03-20T01:06:50;9.70;99.90
1578;DHT22;57623;53.608;10.004;2023-03-20T01:09:19;9.70;99.90
1578;DHT22;57623;53.608;10.004;2023-03-20T01:11:47;9.70;99.90
1578;DHT22;57623;53.608;10.004;2023-03-20T01:14:16;9.70;99.90
1578;DHT22;57623;53.608;10.004;2023-03-20T01:16:44;9.70;99.90
1578;DHT22;57623;53.608;10.004;2023-03-20T01:19:13;9.70;99.90
1578;DHT22;57623;53.608;10.004;2023-03-20T01:21:42;9.70;99.90
1578;DHT22;57623;53.608;10.004;2023-03-20T01:24:10;9.70;99.90
1578;DHT22;57623;53.608;10.004;2023-03-20T01:26:40;9.70;99.90
1578;DHT22;57623;53.608;10.004;2023-03-20T01:29:16;9.70;99.90
1578;DHT22;57623;53.608;10.004;2023-03-20T01:31:44;9.70;99.90
1578;DHT22;57623;53.608;10.004;2023-03-20T01:34:13;9.70;99.90
1578;DHT22;57623;53.608;10.004;2023-03-20T01:36:44;9.70;99.90
1578;DHT22;57623;53.608;10.004;2023-03-20T01:39:15;9.70;99.90
1578;DHT22;57623;53.608;10.004;2023-03-20T01:41:46;9.70;99.90
1578;DHT22;57623;53.608;10.004;2023-03-20T01:44:19;9.70;99.90
1578;DHT22;57623;53.608;10.004;2023-03-20T01:46:49;9.70;99.90
1578;DHT22;57623;53.608;10.004;2023-03-20T01:52:23;9.70;99.90
1578;DHT22;57623;53.608;10.004;2023-03-20T01:54:52;9.70;99.90
1578;DHT22;57623;53.608;10.004;2023-03-20T01:57:23;9.70;99.90
1578;DHT22;57623;53.608;10.004;2023-03-20T01:59:56;9.70;99.90
1578;DHT22;57623;53.608;10.004;2023-03-20T02:02:29;9.70;99.90
1578;DHT22;57623;53.608;10.004;2023-03-20T02:05:01;9.60;99.90
1578;DHT22;57623;53.608;10.004;2023-03-20T02:07:31;9.60;99.90
1578;DHT22;57623;53.608;10.004;2023-03-20T02:10:00;9.60;99.90
1578;DHT22;57623;53.608;10.004;2023-03-20T02:12:30;9.60;99.90
1578;DHT22;57623;53.608;10.004;2023-03-20T02:14:58;9.50;99.90
1578;DHT22;57623;53.608;10.004;2023-03-20T02:17:27;9.50;99.90
1578;DHT22;57623;53.608;10.004;2023-03-20T02:20:04;9.50;99.90
1578;DHT22;57623;53.608;10.004;2023-03-20T02:22:59;9.50;99.90
1578;DHT22;57623;53.608;10.004;2023-03-20T02:29:20;9.40;99.90
1578;DHT22;57623;53.608;10.004;2023-03-20T02:32:32;9.40;99.90
1578;DHT22;57623;53.608;10.004;2023-03-20T02:35:36;9.30;99.90
1578;DHT22;57623;53.608;10.004;2023-03-20T02:38:20;9.30;99.90
1578;DHT22;57623;53.608;10.004;2023-03-20T02:40:57;9.20;99.90
1578;DHT22;57623;53.608;10.004;2023-03-20T02:43:35;9.20;99.90
1578;DHT22;57623;53.608;10.004;2023-03-20T02:46:10;9.20;99.90
1578;DHT22;57623;53.608;10.004;2023-03-20T02:48:46;9.10;99.90
1578;DHT22;57623;53.608;10.004;2023-03-20T02:51:22;9.10;99.90
1578;DHT22;57623;53.608;10.004;2023-03-20T02:54:01;9.10;99.90
1578;DHT22;57623;53.608;10.004;2023-03-20T02:56:35;9.10;99.90
1578;DHT22;57623;53.608;10.004;2023-03-20T02:59:11;9.00;99.90
1578;DHT22;57623;53.608;10.004;2023-03-20T03:01:45;8.90;99.90
1578;DHT22;57623;53.608;10.004;2023-03-20T03:04:18;8.90;99.90
1578;DHT22;57623;53.608;10.004;2023-03-20T03:06:47;8.90;99.90
1578;DHT22;57623;53.608;10.004;2023-03-20T03:09:22;8.90;99.90
1578;DHT22;57623;53.608;10.004;2023-03-20T03:11:54;8.90;99.90
1578;DHT22;57623;53.608;10.004;2023-03-20T03:14:31;8.90;99.90
1578;DHT22;57623;53.608;10.004;2023-03-20T03:17:01;8.80;99.90
1578;DHT22;57623;53.608;10.004;2023-03-20T03:19:33;8.80;99.90
1578;DHT22;57623;53.608;10.004;2023-03-20T03:22:03;8.80;99.90
1578;DHT22;57623;53.608;10.004;2023-03-20T03:24:34;8.80;99.90
1578;DHT22;57623;53.608;10.004;2023-03-20T03:27:12;8.80;99.90
1578;DHT22;57623;53.608;10.004;2023-03-20T03:29:46;8.70;99.90
1578;DHT22;57623;53.608;10.004;2023-03-20T03:32:24;8.70;99.90
1578;DHT22;57623;53.608;10.004;2023-03-20T03:34:52;8.70;99.90
1578;DHT22;57623;53.608;10.004;2023-03-20T03:37:30;8.70;99.90
1578;DHT22;57623;53.608;10.004;2023-03-20T03:40:16;8.70;99.90
1578;DHT22;57623;53.608;10.004;2023-03-20T03:42:51;8.70;99.90
1578;DHT22;57623;53.608;10.004;2023-03-20T03:45:23;8.70;99.90
1578;DHT22;57623;53.608;10.004;2023-03-20T03:47:55;8.70;99.90
1578;DHT22;57623;53.608;10.004;2023-03-20T03:50:30;8.60;99.90
1578;DHT22;57623;53.608;10.004;2023-03-20T03:53:03;8.60;99.90
1578;DHT22;57623;53.608;10.004;2023-03-20T03:55:37;8.60;99.90
1578;DHT22;57623;53.608;10.004;2023-03-20T03:58:09;8.60;99.90
1578;DHT22;57623;53.608;10.004;2023-03-20T04:00:40;8.60;99.90
1578;DHT22;57623;53.608;10.004;2023-03-20T04:03:09;8.60;99.90
1578;DHT22;57623;53.608;10.004;2023-03-20T04:05:41;8.60;99.90
1578;DHT22;57623;53.608;10.004;2023-03-20T04:08:11;8.50;99.90
1578;DHT22;57623;53.608;10.004;2023-03-20T04:10:40;8.50;99.90
1578;DHT22;57623;53.608;10.004;2023-03-20T04:13:08;8.60;99.90
1578;DHT22;57623;53.608;10.004;2023-03-20T04:15:36;8.60;99.90
1578;DHT22;57623;53.608;10.004;2023-03-20T04:18:05;8.50;99.90
1578;DHT22;57623;53.608;10.004;2023-03-20T04:20:33;8.50;99.90
1578;DHT22;57623;53.608;10.004;2023-03-20T04:23:01;8.50;99.90
1578;DHT22;57623;53.608;10.004;2023-03-20T04:25:30;8.50;99.90
1578;DHT22;57623;53.608;10.004;2023-03-20T04:27:59;8.50;99.90
1578;DHT22;57623;53.608;10.004;2023-03-20T04:30:27;8.50;99.90
1578;DHT22;57623;53.608;10.004;2023-03-20T04:32:56;8.50;99.90
1578;DHT22;57623;53.608;10.004;2023-03-20T04:35:24;8.50;99.90
1578;DHT22;57623;53.608;10.004;2023-03-20T04:37:52;8.50;99.90
1578;DHT22;57623;53.608;10.004;2023-03-20T04:40:20;8.50;99.90
1578;DHT22;57623;53.608;10.004;2023-03-20T04:42:48;8.40;99.90
1578;DHT22;57623;53.608;10.004;2023-03-20T04:45:17;8.40;99.90
1578;DHT22;57623;53.608;10.004;2023-03-20T04:47:46;8.40;99.90
1578;DHT22;57623;53.608;10.004;2023-03-20T04:50:14;8.40;99.90
1578;DHT22;57623;53.608;10.004;2023-03-20T04:52:42;8.50;99.90
1578;DHT22;57623;53.608;10.004;2023-03-20T04:55:10;8.50;99.90
1578;DHT22;57623;53.608;10.004;2023-03-20T04:57:38;8.40;99.90
1578;DHT22;57623;53.608;10.004;2023-03-20T05:00:07;8.40;99.90
1578;DHT22;57623;53.608;10.004;2023-03-20T05:02:38;8.40;99.90
1578;DHT22;57623;53.608;10.004;2023-03-20T05:05:06;8.50;99.90
1578;DHT22;57623;53.608;10.004;2023-03-20T05:07:34;8.50;99.90
1578;DHT22;57623;53.608;10.004;2023-03-20T05:10:03;8.50;99.90
1578;DHT22;57623;53.608;10.004;2023-03-20T05:12:32;8.40;99.90
1578;DHT22;57623;53.608;10.004;2023-03-20T05:15:00;8.40;99.90
1578;DHT22;57623;53.608;10.004;2023-03-20T05:17:28;8.40;99.90
1578;DHT22;57623;53.608;10.004;2023-03-20T05:19:57;8.40;99.90
1578;DHT22;57623;53.608;10.004;2023-03-20T05:22:25;8.40;99.90
1578;DHT22;57623;53.608;10.004;2023-03-20T05:24:53;8.40;99.90
1578;DHT22;57623;53.608;10.004;2023-03-20T05:27:21;8.40;99.90
1578;DHT22;57623;53.608;10.004;2023-03-20T05:29:49;8.40;99.90
1578;DHT22;57623;53.608;10.004;2023-03-20T05:32:17;8.30;99.90
1578;DHT22;57623;53.608;10.004;2023-03-20T05:34:45;8.40;99.90
1578;DHT22;57623;53.608;10.004;2023-03-20T05:37:14;8.40;99.90
1578;DHT22;57623;53.608;10.004;2023-03-20T05:39:42;8.40;99.90
1578;DHT22;57623;53.608;10.004;2023-03-20T05:42:10;8.30;99.90
1578;DHT22;57623;53.608;10.004;2023-03-20T05:44:38;8.30;99.90
1578;DHT22;57623;53.608;10.004;2023-03-20T05:47:06;8.30;99.90
1578;DHT22;57623;53.608;10.004;2023-03-20T05:49:34;8.30;99.90
1578;DHT22;57623;53.608;10.004;2023-03-20T05:52:02;8.30;99.90
1578;DHT22;57623;53.608;10.004;2023-03-20T05:54:32;8.30;99.90
1578;DHT22;57623;53.608;10.004;2023-03-20T05:57:00;8.30;99.90
1578;DHT22;57623;53.608;10.004;2023-03-20T05:59:28;8.30;99.90
1578;DHT22;57623;53.608;10.004;2023-03-20T06:01:56;8.30;99.90
1578;DHT22;57623;53.608;10.004;2023-03-20T06:04:24;8.30;99.90
1578;DHT22;57623;53.608;10.004;2023-03-20T06:06:52;8.30;99.90
1578;DHT22;57623;53.608;10.004;2023-03-20T06:09:20;8.30;99.90
1578;DHT22;57623;53.608;10.004;2023-03-20T06:11:49;8.30;99.90
1578;DHT22;57623;53.608;10.004;2023-03-20T06:14:17;8.20;99.90
1578;DHT22;57623;53.608;10.004;2023-03-20T06:16:45;8.30;99.90
1578;DHT22;57623;53.608;10.004;2023-03-20T06:19:13;8.30;99.90
1578;DHT22;57623;53.608;10.004;2023-03-20T06:21:41;8.20;99.90
1578;DHT22;57623;53.608;10.004;2023-03-20T06:24:10;8.30;99.90
1578;DHT22;57623;53.608;10.004;2023-03-20T06:26:37;8.30;99.90
1578;DHT22;57623;53.608;10.004;2023-03-20T06:29:07;8.30;99.90
1578;DHT22;57623;53.608;10.004;2023-03-20T06:31:38;8.20;99.90
1578;DHT22;57623;53.608;10.004;2023-03-20T06:34:06;8.30;99.90
1578;DHT22;57623;53.608;10.004;2023-03-20T06:36:34;8.30;99.90
1578;DHT22;57623;53.608;10.004;2023-03-20T06:39:02;8.30;99.90
1578;DHT22;57623;53.608;10.004;2023-03-20T06:41:30;8.30;99.90
1578;DHT22;57623;53.608;10.004;2023-03-20T06:44:00;8.30;99.90
1578;DHT22;57623;53.608;10.004;2023-03-20T06:46:30;8.30;99.90
1578;DHT22;57623;53.608;10.004;2023-03-20T06:48:58;8.30;99.90
1578;DHT22;57623;53.608;10.004;2023-03-20T06:51:26;8.40;99.90
1578;DHT22;57623;53.608;10.004;2023-03-20T06:53:55;8.40;99.90
1578;DHT22;57623;53.608;10.004;2023-03-20T06:56:23;8.40;99.90
1578;DHT22;57623;53.608;10.004;2023-03-20T06:58:51;8.50;99.90
1578;DHT22;57623;53.608;10.004;2023-03-20T07:01:19;8.50;99.90
1578;DHT22;57623;53.608;10.004;2023-03-20T07:03:48;8.50;99.90
1578;DHT22;57623;53.608;10.004;2023-03-20T07:06:17;8.50;99.90
1578;DHT22;57623;53.608;10.004;2023-03-20T07:08:45;8.50;99.90
1578;DHT22;57623;53.608;10.004;2023-03-20T07:11:13;8.50;99.90
1578;DHT22;57623;53.608;10.004;2023-03-20T07:13:41;8.60;99.90
1578;DHT22;57623;53.608;10.004;2023-03-20T07:16:09;8.60;99.90
1578;DHT22;57623;53.608;10.004;2023-03-20T07:18:38;8.60;99.90
1578;DHT22;57623;53.608;10.004;2023-03-20T07:21:07;8.60;99.90
1578;DHT22;57623;53.608;10.004;2023-03-20T07:23:35;8.60;99.90
1578;DHT22;57623;53.608;10.004;2023-03-20T07:26:03;8.60;99.90
1578;DHT22;57623;53.608;10.004;2023-03-20T07:28:32;8.60;99.90
1578;DHT22;57623;53.608;10.004;2023-03-20T07:31:00;8.60;99.90
1578;DHT22;57623;53.608;10.004;2023-03-20T07:33:28;8.60;99.90
1578;DHT22;57623;53.608;10.004;2023-03-20T07:35:56;8.60;99.90
1578;DHT22;57623;53.608;10.004;2023-03-20T07:38:26;8.60;99.90
1578;DHT22;57623;53.608;10.004;2023-03-20T07:40:53;8.60;99.90
1578;DHT22;57623;53.608;10.004;2023-03-20T07:43:21;8.60;99.90
1578;DHT22;57623;53.608;10.004;2023-03-20T07:45:49;8.70;99.90
1578;DHT22;57623;53.608;10.004;2023-03-20T07:48:17;8.70;99.90
1578;DHT22;57623;53.608;10.004;2023-03-20T07:50:45;8.70;99.90
1578;DHT22;57623;53.608;10.004;2023-03-20T07:53:13;8.70;99.90
1578;DHT22;57623;53.608;10.004;2023-03-20T07:55:44;8.70;99.90
1578;DHT22;57623;53.608;10.004;2023-03-20T07:58:12;8.80;99.90
1578;DHT22;57623;53.608;10.004;2023-03-20T08:00:40;8.80;99.90
1578;DHT22;57623;53.608;10.004;2023-03-20T08:03:08;8.80;99.90
1578;DHT22;57623;53.608;10.004;2023-03-20T08:05:37;8.80;99.90
1578;DHT22;57623;53.608;10.004;2023-03-20T08:08:05;8.80;99.90
1578;DHT22;57623;53.608;10.004;2023-03-20T08:10:33;8.90;99.90
1578;DHT22;57623;53.608;10.004;2023-03-20T08:13:03;8.90;99.90
1578;DHT22;57623;53.608;10.004;2023-03-20T08:15:31;8.90;99.90
1578;DHT22;57623;53.608;10.004;2023-03-20T08:17:59;8.90;99.90
1578;DHT22;57623;53.608;10.004;2023-03-20T08:20:27;9.00;99.90
1578;DHT22;57623;53.608;10.004;2023-03-20T08:22:57;9.00;99.90
1578;DHT22;57623;53.608;10.004;2023-03-20T08:25:25;9.00;99.90
1578;DHT22;57623;53.608;10.004;2023-03-20T08:27:54;8.90;99.90
1578;DHT22;57623;53.608;10.004;2023-03-20T08:30:24;9.00;99.90
1578;DHT22;57623;53.608;10.004;2023-03-20T08:32:52;8.90;99.90
1578;DHT22;57623;53.608;10.004;2023-03-20T08:35:21;9.00;99.90
1578;DHT22;57623;53.608;10.004;2023-03-20T08:37:59;9.00;99.90
1578;DHT22;57623;53.608;10.004;2023-03-20T08:40:28;9.00;99.90
1578;DHT22;57623;53.608;10.004;2023-03-20T08:42:56;9.00;99.90
1578;DHT22;57623;53.608;10.004;2023-03-20T08:45:26;9.00;99.90
1578;DHT22;57623;53.608;10.004;2023-03-20T08:47:54;9.00;99.90
1578;DHT22;57623;53.608;10.004;2023-03-20T08:50:22;9.00;99.90
1578;DHT22;57623;53.608;10.004;2023-03-20T08:52:50;9.10;99.90
1578;DHT22;57623;53.608;10.004;2023-03-20T08:55:18;9.10;99.90
1578;DHT22;57623;53.608;10.004;2023-03-20T08:57:46;9.10;99.90
1578;DHT22;57623;53.608;10.004;2023-03-20T09:00:15;9.20;99.90
1578;DHT22;57623;53.608;10.004;2023-03-20T09:02:46;9.20;99.90
1578;DHT22;57623;53.608;10.004;2023-03-20T09:05:14;9.20;99.90
1578;DHT22;57623;53.608;10.004;2023-03-20T09:07:42;9.20;99.90
1578;DHT22;57623;53.608;10.004;2023-03-20T09:10:11;9.20;99.90
1578;DHT22;57623;53.608;10.004;2023-03-20T09:12:39;9.30;99.90
1578;DHT22;57623;53.608;10.004;2023-03-20T09:15:08;9.30;99.90
1578;DHT22;57623;53.608;10.004;2023-03-20T09:17:36;9.30;99.90
1578;DHT22;57623;53.608;10.004;2023-03-20T09:20:06;9.30;99.90
1578;DHT22;57623;53.608;10.004;2023-03-20T09:22:35;9.30;99.90
1578;DHT22;57623;53.608;10.004;2023-03-20T09:25:03;9.30;99.90
1578;DHT22;57623;53.608;10.004;2023-03-20T09:27:31;9.30;99.90
1578;DHT22;57623;53.608;10.004;2023-03-20T09:29:59;9.30;99.90
1578;DHT22;57623;53.608;10.004;2023-03-20T09:32:27;9.40;99.90
1578;DHT22;57623;53.608;10.004;2023-03-20T09:34:55;9.40;99.90
1578;DHT22;57623;53.608;10.004;2023-03-20T09:37:25;9.40;99.90
1578;DHT22;57623;53.608;10.004;2023-03-20T09:39:53;9.40;99.90
1578;DHT22;57623;53.608;10.004;2023-03-20T09:42:29;9.40;99.90
1578;DHT22;57623;53.608;10.004;2023-03-20T09:45:04;9.40;99.90
1578;DHT22;57623;53.608;10.004;2023-03-20T09:47:44;9.40;99.90
1578;DHT22;57623;53.608;10.004;2023-03-20T09:50:25;9.40;99.90
1578;DHT22;57623;53.608;10.004;2023-03-20T09:53:00;9.50;99.90
1578;DHT22;57623;53.608;10.004;2023-03-20T09:55:34;9.50;99.90
1578;DHT22;57623;53.608;10.004;2023-03-20T09:58:09;9.60;99.90
1578;DHT22;57623;53.608;10.004;2023-03-20T10:00:39;9.60;99.90
1578;DHT22;57623;53.608;10.004;2023-03-20T10:03:17;9.50;99.90
1578;DHT22;57623;53.608;10.004;2023-03-20T10:05:49;9.60;99.90
1578;DHT22;57623;53.608;10.004;2023-03-20T10:08:23;9.50;99.90
1578;DHT22;57623;53.608;10.004;2023-03-20T10:10:58;9.50;99.90
1578;DHT22;57623;53.608;10.004;2023-03-20T10:13:46;9.50;99.90
1578;DHT22;57623;53.608;10.004;2023-03-20T10:16:21;9.50;99.90
1578;DHT22;57623;53.608;10.004;2023-03-20T10:18:58;9.50;99.90
1578;DHT22;57623;53.608;10.004;2023-03-20T10:21:36;9.50;99.90
1578;DHT22;57623;53.608;10.004;2023-03-20T10:24:14;9.50;99.90
1578;DHT22;57623;53.608;10.004;2023-03-20T10:26:46;9.50;99.90
1578;DHT22;57623;53.608;10.004;2023-03-20T10:29:25;9.50;99.90
1578;DHT22;57623;53.608;10.004;2023-03-20T10:32:00;9.50;99.90
1578;DHT22;57623;53.608;10.004;2023-03-20T10:34:40;9.50;99.90
1578;DHT22;57623;53.608;10.004;2023-03-20T10:37:30;9.60;99.90
1578;DHT22;57623;53.608;10.004;2023-03-20T10:42:58;9.60;99.90
1578;DHT22;57623;53.608;10.004;2023-03-20T10:45:36;9.60;99.90
1578;DHT22;57623;53.608;10.004;2023-03-20T10:48:10;9.70;99.90
1578;DHT22;57623;53.608;10.004;2023-03-20T10:50:44;9.60;99.90
1578;DHT22;57623;53.608;10.004;2023-03-20T10:53:22;9.60;99.90
1578;DHT22;57623;53.608;10.004;2023-03-20T10:55:54;9.60;99.90
1578;DHT22;57623;53.608;10.004;2023-03-20T10:58:27;9.60;99.90
1578;DHT22;57623;53.608;10.004;2023-03-20T11:00:56;9.70;99.90
1578;DHT22;57623;53.608;10.004;2023-03-20T11:03:26;9.70;99.90
1578;DHT22;57623;53.608;10.004;2023-03-20T11:05:58;9.80;99.90
1578;DHT22;57623;53.608;10.004;2023-03-20T11:08:38;9.80;99.90
1578;DHT22;57623;53.608;10.004;2023-03-20T11:11:08;9.80;99.90
1578;DHT22;57623;53.608;10.004;2023-03-20T11:13:39;9.80;99.90
1578;DHT22;57623;53.608;10.004;2023-03-20T11:16:18;9.80;99.90
1578;DHT22;57623;53.608;10.004;2023-03-20T11:18:46;9.80;99.90
1578;DHT22;57623;53.608;10.004;2023-03-20T11:21:21;9.90;99.90
1578;DHT22;57623;53.608;10.004;2023-03-20T11:23:50;9.90;99.90
1578;DHT22;57623;53.608;10.004;2023-03-20T11:26:33;9.90;99.90
1578;DHT22;57623;53.608;10.004;2023-03-20T11:29:04;10.00;99.90
1578;DHT22;57623;53.608;10.004;2023-03-20T11:31:34;10.00;99.90
1578;DHT22;57623;53.608;10.004;2023-03-20T11:34:19;10.00;99.90
1578;DHT22;57623;53.608;10.004;2023-03-20T11:36:54;10.00;99.90
1578;DHT22;57623;53.608;10.004;2023-03-20T11:39:35;10.00;99.90
1578;DHT22;57623;53.608;10.004;2023-03-20T11:42:21;10.00;99.90
1578;DHT22;57623;53.608;10.004;2023-03-20T11:44:56;10.00;99.90
1578;DHT22;57623;53.608;10.004;2023-03-20T11:47:26;10.00;99.90
1578;DHT22;57623;53.608;10.004;2023-03-20T11:49:56;10.00;99.90
1578;DHT22;57623;53.608;10.004;2023-03-20T11:52:26;10.00;99.90
1578;DHT22;57623;53.608;10.004;2023-03-20T11:54:58;10.00;99.90
1578;DHT22;57623;53.608;10.004;2023-03-20T11:57:33;10.00;99.90
1578;DHT22;57623;53.608;10.004;2023-03-20T12:00:05;10.00;99.90
1578;DHT22;57623;53.608;10.004;2023-03-20T12:02:34;9.90;99.90
1578;DHT22;57623;53.608;10.004;2023-03-20T12:05:19;9.90;99.90
1578;DHT22;57623;53.608;10.004;2023-03-20T12:07:50;9.90;99.90
1578;DHT22;57623;53.608;10.004;2023-03-20T12:10:27;9.90;99.90
1578;DHT22;57623;53.608;10.004;2023-03-20T12:13:01;9.90;99.90
1578;DHT22;57623;53.608;10.004;2023-03-20T12:15:32;9.90;99.90
1578;DHT22;57623;53.608;10.004;2023-03-20T12:18:04;9.90;99.90
1578;DHT22;57623;53.608;10.004;2023-03-20T12:20:37;10.00;99.90
1578;DHT22;57623;53.608;10.004;2023-03-20T12:23:11;10.00;99.90
1578;DHT22;57623;53.608;10.004;2023-03-20T12:25:46;10.10;99.90
1578;DHT22;57623;53.608;10.004;2023-03-20T12:28:21;10.10;99.90
1578;DHT22;57623;53.608;10.004;2023-03-20T12:31:03;10.10;99.90
1578;DHT22;57623;53.608;10.004;2023-03-20T12:33:39;10.20;99.90
1578;DHT22;57623;53.608;10.004;2023-03-20T12:36:13;10.20;99.90
1578;DHT22;57623;53.608;10.004;2023-03-20T12:38:42;10.20;99.90
1578;DHT22;57623;53.608;10.004;2023-03-20T12:41:13;10.20;99.90
1578;DHT22;57623;53.608;10.004;2023-03-20T12:44:02;10.30;99.90
1578;DHT22;57623;53.608;10.004;2023-03-20T12:46:41;10.30;99.90
1578;DHT22;57623;53.608;10.004;2023-03-20T12:49:21;10.40;99.90
1578;DHT22;57623;53.608;10.004;2023-03-20T12:52:01;10.50;99.90
1578;DHT22;57623;53.608;10.004;2023-03-20T12:54:55;10.70;99.90
1578;DHT22;57623;53.608;10.004;2023-03-20T12:57:29;11.20;99.90
1578;DHT22;57623;53.608;10.004;2023-03-20T13:00:12;11.60;99.90
1578;DHT22;57623;53.608;10.004;2023-03-20T13:02:51;11.70;99.90
1578;DHT22;57623;53.608;10.004;2023-03-20T13:11:15;11.50;99.90
1578;DHT22;57623;53.608;10.004;2023-03-20T13:13:48;11.50;99.90
1578;DHT22;57623;53.608;10.004;2023-03-20T13:16:26;11.40;99.90
1578;DHT22;57623;53.608;10.004;2023-03-20T13:19:02;11.30;99.90
1578;DHT22;57623;53.608;10.004;2023-03-20T13:21:39;11.20;99.90
1578;DHT22;57623;53.608;10.004;2023-03-20T13:24:26;11.20;99.90
1578;DHT22;57623;53.608;10.004;2023-03-20T13:27:02;11.10;99.90
1578;DHT22;57623;53.608;10.004;2023-03-20T13:29:41;11.00;99.90
1578;DHT22;57623;53.608;10.004;2023-03-20T13:32:22;10.90;99.90
1578;DHT22;57623;53.608;10.004;2023-03-20T13:35:00;10.80;99.90
1578;DHT22;57623;53.608;10.004;2023-03-20T13:37:32;10.80;99.90
1578;DHT22;57623;53.608;10.004;2023-03-20T13:40:10;10.90;99.90
1578;DHT22;57623;53.608;10.004;2023-03-20T13:42:44;10.90;99.90
1578;DHT22;57623;53.608;10.004;2023-03-20T13:45:23;10.90;99.90
1578;DHT22;57623;53.608;10.004;2023-03-20T13:48:01;10.80;99.90
1578;DHT22;57623;53.608;10.004;2023-03-20T13:50:40;10.80;99.90
1578;DHT22;57623;53.608;10.004;2023-03-20T13:53:18;10.80;99.90
1578;DHT22;57623;53.608;10.004;2023-03-20T13:55:53;10.70;99.90
1578;DHT22;57623;53.608;10.004;2023-03-20T13:58:40;10.70;99.90
1578;DHT22;57623;53.608;10.004;2023-03-20T14:01:17;10.60;99.90
1578;DHT22;57623;53.608;10.004;2023-03-20T14:03:51;10.60;99.90
1578;DHT22;57623;53.608;10.004;2023-03-20T14:06:45;10.60;99.90
1578;DHT22;57623;53.608;10.004;2023-03-20T14:09:28;10.60;99.90
1578;DHT22;57623;53.608;10.004;2023-03-20T14:12:00;10.50;99.90
1578;DHT22;57623;53.608;10.004;2023-03-20T14:14:30;10.50;99.90
1578;DHT22;57623;53.608;10.004;2023-03-20T14:17:07;10.50;99.90
1578;DHT22;57623;53.608;10.004;2023-03-20T14:19:37;10.50;99.90
1578;DHT22;57623;53.608;10.004;2023-03-20T14:22:06;10.50;99.90
1578;DHT22;57623;53.608;10.004;2023-03-20T14:24:55;10.50;99.90
1578;DHT22;57623;53.608;10.004;2023-03-20T14:27:26;10.60;99.90
1578;DHT22;57623;53.608;10.004;2023-03-20T14:30:37;10.60;99.90
1578;DHT22;57623;53.608;10.004;2023-03-20T14:33:07;10.60;99.90
1578;DHT22;57623;53.608;10.004;2023-03-20T14:36:09;10.60;99.90
1578;DHT22;57623;53.608;10.004;2023-03-20T14:38:45;10.60;99.90
1578;DHT22;57623;53.608;10.004;2023-03-20T14:41:23;10.60;99.90
1578;DHT22;57623;53.608;10.004;2023-03-20T14:44:01;10.60;99.90
1578;DHT22;57623;53.608;10.004;2023-03-20T14:46:41;10.60;99.90
1578;DHT22;57623;53.608;10.004;2023-03-20T14:49:33;10.60;99.90
1578;DHT22;57623;53.608;10.004;2023-03-20T14:52:27;10.60;99.90
1578;DHT22;57623;53.608;10.004;2023-03-20T14:55:25;10.60;99.90
1578;DHT22;57623;53.608;10.004;2023-03-20T14:57:54;10.50;99.90
1578;DHT22;57623;53.608;10.004;2023-03-20T15:00:24;10.50;99.90
1578;DHT22;57623;53.608;10.004;2023-03-20T15:03:02;10.40;99.90
1578;DHT22;57623;53.608;10.004;2023-03-20T15:05:33;10.40;99.90
1578;DHT22;57623;53.608;10.004;2023-03-20T15:08:05;10.40;99.90
1578;DHT22;57623;53.608;10.004;2023-03-20T15:10:42;10.40;99.90
1578;DHT22;57623;53.608;10.004;2023-03-20T15:13:12;10.40;99.90
1578;DHT22;57623;53.608;10.004;2023-03-20T15:15:52;10.40;99.90
1578;DHT22;57623;53.608;10.004;2023-03-20T15:18:22;10.40;99.90
1578;DHT22;57623;53.608;10.004;2023-03-20T15:20:50;10.40;99.90
1578;DHT22;57623;53.608;10.004;2023-03-20T15:23:20;10.40;99.90
1578;DHT22;57623;53.608;10.004;2023-03-20T15:25:49;10.40;99.90
1578;DHT22;57623;53.608;10.004;2023-03-20T15:28:19;10.30;99.90
1578;DHT22;57623;53.608;10.004;2023-03-20T15:30:50;10.30;99.90
1578;DHT22;57623;53.608;10.004;2023-03-20T15:33:24;10.30;99.90
1578;DHT22;57623;53.608;10.004;2023-03-20T15:35:53;10.20;99.90
1578;DHT22;57623;53.608;10.004;2023-03-20T15:38:28;10.20;99.90
1578;DHT22;57623;53.608;10.004;2023-03-20T15:40:56;10.20;99.90
1578;DHT22;57623;53.608;10.004;2023-03-20T15:43:26;10.20;99.90
1578;DHT22;57623;53.608;10.004;2023-03-20T15:45:56;10.20;99.90
1578;DHT22;57623;53.608;10.004;2023-03-20T15:48:46;10.20;99.90
1578;DHT22;57623;53.608;10.004;2023-03-20T15:51:15;10.10;99.90
1578;DHT22;57623;53.608;10.004;2023-03-20T15:53:46;10.10;99.90
1578;DHT22;57623;53.608;10.004;2023-03-20T15:56:17;10.10;99.90
1578;DHT22;57623;53.608;10.004;2023-03-20T15:58:47;10.00;99.90
1578;DHT22;57623;53.608;10.004;2023-03-20T16:01:19;10.00;99.90
1578;DHT22;57623;53.608;10.004;2023-03-20T16:03:48;10.00;99.90
1578;DHT22;57623;53.608;10.004;2023-03-20T16:06:19;9.90;99.90
1578;DHT22;57623;53.608;10.004;2023-03-20T16:08:58;9.90;99.90
1578;DHT22;57623;53.608;10.004;2023-03-20T16:11:35;9.90;99.90
1578;DHT22;57623;53.608;10.004;2023-03-20T16:14:05;9.80;99.90
1578;DHT22;57623;53.608;10.004;2023-03-20T16:16:33;9.80;99.90
1578;DHT22;57623;53.608;10.004;2023-03-20T16:19:04;9.80;99.90
1578;DHT22;57623;53.608;10.004;2023-03-20T16:21:35;9.70;99.90
1578;DHT22;57623;53.608;10.004;2023-03-20T16:24:07;9.70;99.90
1578;DHT22;57623;53.608;10.004;2023-03-20T16:26:41;9.70;99.90
1578;DHT22;57623;53.608;10.004;2023-03-20T16:29:12;9.70;99.90
1578;DHT22;57623;53.608;10.004;2023-03-20T16:31:46;9.70;99.90